Terminal Aerodrome Forecast
Issued by NWS

Home | Current Version | Previous Version | Text Only | Print | Product List | Glossary On
Versions: 1 2 3 4 5 6 7 8 9 10 11 12 13 14 15 16 17 18
935
FTUS42 KFFC 241519 AAA
TAFPDK
TAF AMD
KPDK 241519Z 2415/2512 30009KT P6SM VCSH FEW020 SCT040
      TEMPO 2418/2422 4SM TSRA BKN035CB
     FM250000 26005KT P6SM SCT120 BKN250=

USA.gov is the U.S. government's official web portal to all federal, state and local government web resources and services.